createdAt,value
2022-10-23T00:00:01.632Z,1.60
2022-10-23T00:02:33.660Z,1.83
2022-10-23T00:05:03.781Z,2.83
2022-10-23T00:07:33.723Z,1.60
2022-10-23T00:10:04.841Z,1.45
2022-10-23T00:12:35.050Z,1.65
2022-10-23T00:15:06.179Z,1.65
2022-10-23T00:17:36.322Z,1.38
2022-10-23T00:20:09.031Z,1.42
2022-10-23T00:22:39.800Z,1.90
2022-10-23T00:25:12.191Z,1.70
2022-10-23T00:27:42.374Z,1.67
2022-10-23T00:30:14.114Z,1.38
2022-10-23T00:32:44.190Z,1.75
2022-10-23T00:35:14.881Z,2.08
2022-10-23T00:37:46.408Z,1.27
2022-10-23T00:40:19.810Z,1.70
2022-10-23T00:42:49.893Z,2.28
2022-10-23T00:45:27.792Z,1.70
2022-10-23T00:47:58.030Z,1.50
2022-10-23T00:50:31.890Z,1.40
2022-10-23T00:53:04.871Z,1.30
2022-10-23T00:55:37.281Z,1.60
2022-10-23T00:58:08.463Z,1.25
2022-10-23T01:00:58.284Z,1.92
2022-10-23T01:03:30.365Z,1.70
2022-10-23T01:06:22.880Z,1.40
2022-10-23T01:09:02.216Z,1.40
2022-10-23T01:11:48.373Z,1.23
2022-10-23T01:14:37.188Z,1.88
2022-10-23T01:17:28.175Z,1.20
2022-10-23T01:20:26.073Z,1.25
2022-10-23T01:23:21.665Z,1.88
2022-10-23T01:26:11.096Z,1.48
2022-10-23T01:28:50.216Z,1.27
2022-10-23T01:31:34.213Z,1.50
2022-10-23T01:34:16.743Z,1.85
2022-10-23T01:36:51.177Z,1.33
2022-10-23T01:39:32.951Z,1.50
2022-10-23T01:42:14.623Z,1.42
2022-10-23T01:45:07.796Z,1.20
2022-10-23T01:47:47.130Z,1.33
2022-10-23T01:50:22.017Z,1.60
2022-10-23T01:52:58.176Z,1.70
2022-10-23T01:55:29.097Z,1.35
2022-10-23T01:58:03.879Z,1.30
2022-10-23T02:00:42.501Z,1.60
2022-10-23T02:03:14.854Z,1.42
2022-10-23T02:05:46.652Z,1.23
2022-10-23T02:08:16.920Z,1.20
2022-10-23T02:10:53.896Z,1.08
2022-10-23T02:13:39.319Z,1.25
2022-10-23T02:16:36.530Z,1.02
2022-10-23T02:19:34.819Z,0.75
2022-10-23T02:22:19.138Z,1.00
2022-10-23T02:24:57.498Z,1.20
2022-10-23T02:27:38.779Z,1.40
2022-10-23T02:30:16.860Z,1.45
2022-10-23T02:32:57.063Z,1.67
2022-10-23T02:35:27.809Z,2.47
2022-10-23T02:38:33.447Z,1.60
2022-10-23T02:41:28.908Z,1.33
2022-10-23T02:44:02.025Z,0.90
2022-10-23T02:46:57.895Z,0.88
2022-10-23T02:50:06.529Z,0.90
2022-10-23T02:53:20.838Z,1.15
2022-10-23T02:56:09.857Z,1.20
2022-10-23T02:58:42.481Z,1.33
2022-10-23T03:01:28.128Z,1.63
2022-10-23T03:04:04.556Z,1.60
2022-10-23T03:06:35.251Z,1.65
2022-10-23T03:09:10.334Z,1.35
2022-10-23T03:11:41.722Z,1.58
2022-10-23T03:14:16.474Z,1.55
2022-10-23T03:16:47.634Z,1.50
2022-10-23T03:19:17.625Z,1.10
2022-10-23T03:21:48.064Z,1.60
2022-10-23T03:24:18.019Z,0.77
2022-10-23T03:26:48.934Z,0.70
2022-10-23T03:29:18.940Z,0.77
2022-10-23T03:31:49.486Z,0.68
2022-10-23T03:34:20.487Z,0.80
2022-10-23T03:36:51.007Z,0.93
2022-10-23T03:39:23.835Z,1.02
2022-10-23T03:41:54.301Z,1.08
2022-10-23T03:44:24.361Z,1.55
2022-10-23T03:46:54.845Z,1.10
2022-10-23T03:49:24.698Z,1.20
2022-10-23T03:51:55.199Z,1.48
2022-10-23T03:54:27.624Z,1.48
2022-10-23T03:56:58.889Z,1.60
2022-10-23T03:59:29.768Z,0.98
2022-10-23T04:02:01.414Z,0.80
2022-10-23T04:04:31.663Z,0.95
2022-10-23T04:07:02.399Z,0.77
2022-10-23T04:09:32.393Z,0.50
2022-10-23T04:14:32.462Z,1.00
2022-10-23T04:17:02.967Z,1.10
2022-10-23T04:19:33.127Z,1.38
2022-10-23T04:22:03.516Z,1.33
2022-10-23T04:24:33.607Z,1.55
2022-10-23T04:27:04.579Z,1.13
2022-10-23T04:29:34.574Z,1.30
2022-10-23T04:32:05.323Z,1.58
2022-10-23T04:34:35.456Z,1.45
2022-10-23T04:37:07.286Z,1.35
2022-10-23T04:39:37.912Z,1.33
2022-10-23T04:42:08.335Z,1.25
2022-10-23T04:44:38.331Z,1.55
2022-10-23T04:47:10.625Z,1.75
2022-10-23T04:49:49.615Z,1.15
2022-10-23T04:52:42.997Z,1.60
2022-10-23T04:55:52.998Z,1.60
2022-10-23T04:58:29.391Z,1.50
2022-10-23T05:01:00.755Z,1.20
2022-10-23T05:03:32.178Z,1.20
2022-10-23T05:06:02.159Z,1.02
2022-10-23T05:08:52.650Z,1.42
2022-10-23T05:11:52.533Z,1.20
2022-10-23T05:14:23.886Z,1.20
2022-10-23T05:17:10.558Z,0.85
2022-10-23T05:19:46.812Z,1.10
2022-10-23T05:22:18.324Z,0.95
2022-10-23T05:24:51.390Z,1.20
2022-10-23T05:27:26.335Z,0.90
2022-10-23T05:30:01.749Z,0.90
2022-10-23T05:32:37.667Z,0.73
2022-10-23T05:35:18.986Z,1.05
2022-10-23T05:37:53.168Z,1.08
2022-10-23T05:40:31.503Z,1.20
2022-10-23T05:43:09.299Z,1.25
2022-10-23T05:45:50.182Z,1.15
2022-10-23T05:48:34.322Z,1.00
2022-10-23T05:51:26.191Z,1.10
2022-10-23T05:54:11.573Z,1.05
2022-10-23T05:56:51.275Z,1.02
2022-10-23T05:59:46.864Z,0.90
2022-10-23T06:05:29.834Z,1.10
2022-10-23T06:08:17.755Z,1.38
2022-10-23T06:10:51.378Z,1.13
2022-10-23T06:15:51.808Z,0.90
2022-10-23T06:18:24.642Z,1.08
2022-10-23T06:21:03.474Z,1.00
2022-10-23T06:23:37.566Z,1.00
2022-10-23T06:26:22.826Z,1.10
2022-10-23T06:29:08.791Z,1.15
2022-10-23T06:31:40.320Z,1.45
2022-10-23T06:34:13.563Z,1.27
2022-10-23T06:36:44.816Z,1.08
2022-10-23T06:39:41.652Z,1.55
2022-10-23T06:42:21.676Z,0.95
2022-10-23T06:45:01.128Z,1.27
2022-10-23T06:47:54.286Z,1.30
2022-10-23T06:50:38.120Z,1.02
2022-10-23T06:53:17.995Z,0.70
2022-10-23T06:55:55.478Z,1.05
2022-10-23T06:58:27.005Z,0.88
2022-10-23T07:01:08.835Z,1.30
2022-10-23T07:03:39.419Z,1.10
2022-10-23T07:06:12.830Z,1.20
2022-10-23T07:08:43.310Z,1.20
2022-10-23T07:11:33.451Z,0.90
2022-10-23T07:14:04.703Z,1.05
2022-10-23T07:16:35.521Z,0.95
2022-10-23T07:19:07.964Z,1.08
2022-10-23T07:21:57.527Z,1.08
2022-10-23T07:24:50.498Z,0.95
2022-10-23T07:27:28.683Z,1.08
2022-10-23T07:30:03.054Z,1.10
2022-10-23T07:32:38.267Z,1.00
2022-10-23T07:35:10.097Z,0.82
2022-10-23T07:37:43.666Z,1.23
2022-10-23T07:40:15.301Z,1.20
2022-10-23T07:42:48.989Z,1.08
2022-10-23T07:45:20.647Z,1.48
2022-10-23T07:50:31.219Z,1.23
2022-10-23T07:53:01.291Z,1.20
2022-10-23T07:55:41.003Z,1.27
2022-10-23T07:58:16.040Z,1.15
2022-10-23T08:01:04.410Z,0.77
2022-10-23T08:03:38.380Z,0.70
2022-10-23T08:06:09.183Z,0.77
2022-10-23T08:08:39.497Z,1.13
2022-10-23T08:11:14.899Z,0.98
2022-10-23T08:13:57.112Z,1.00
2022-10-23T08:16:29.787Z,1.40
2022-10-23T08:19:10.510Z,1.38
2022-10-23T08:21:42.961Z,1.35
2022-10-23T08:24:15.288Z,1.70
2022-10-23T08:26:50.055Z,1.65
2022-10-23T08:29:24.130Z,1.60
2022-10-23T08:31:58.515Z,1.50
2022-10-23T08:35:07.522Z,1.40
2022-10-23T08:37:38.967Z,1.48
2022-10-23T08:40:21.441Z,1.00
2022-10-23T08:43:36.665Z,1.15
2022-10-23T08:46:28.485Z,0.80
2022-10-23T08:49:24.404Z,0.95
2022-10-23T08:52:28.130Z,0.75
2022-10-23T08:55:22.584Z,0.80
2022-10-23T08:58:19.080Z,0.98
2022-10-23T09:00:50.981Z,0.95
2022-10-23T09:03:21.766Z,0.68
2022-10-23T09:06:18.175Z,0.65
2022-10-23T09:09:18.026Z,0.85
2022-10-23T09:12:27.282Z,0.90
2022-10-23T09:15:14.481Z,0.90
2022-10-23T09:17:46.174Z,0.80
2022-10-23T09:20:26.210Z,1.30
2022-10-23T09:23:14.502Z,1.17
2022-10-23T09:25:45.457Z,1.10
2022-10-23T09:28:28.911Z,1.20
2022-10-23T09:31:13.679Z,1.38
2022-10-23T09:33:54.446Z,1.42
2022-10-23T09:36:27.112Z,1.83
2022-10-23T09:39:00.698Z,1.17
2022-10-23T09:41:41.440Z,1.25
2022-10-23T09:44:29.769Z,1.40
2022-10-23T09:47:22.261Z,1.52
2022-10-23T09:49:54.750Z,1.33
2022-10-23T09:52:31.357Z,1.60
2022-10-23T09:55:03.971Z,1.80
2022-10-23T09:57:54.404Z,1.50
2022-10-23T10:00:27.463Z,1.60
2022-10-23T10:03:03.491Z,1.85
2022-10-23T10:06:06.663Z,1.70
2022-10-23T10:08:48.901Z,1.73
2022-10-23T10:11:23.792Z,1.67
2022-10-23T10:13:59.078Z,1.90
2022-10-23T10:19:11.043Z,1.70
2022-10-23T10:21:49.471Z,1.73
2022-10-23T10:24:40.546Z,1.80
2022-10-23T10:27:28.963Z,1.65
2022-10-23T10:30:20.258Z,1.92
2022-10-23T10:32:52.931Z,1.85
2022-10-23T10:36:02.513Z,1.90
2022-10-23T10:38:53.009Z,1.90
2022-10-23T10:42:03.696Z,2.08
2022-10-23T10:45:05.519Z,2.05
2022-10-23T10:48:09.004Z,1.80
2022-10-23T10:51:01.683Z,1.88
2022-10-23T10:54:06.472Z,1.70
2022-10-23T10:56:43.904Z,1.67
2022-10-23T10:59:20.099Z,1.60
2022-10-23T11:02:01.217Z,1.90
2022-10-23T11:05:09.746Z,1.90
2022-10-23T11:07:49.642Z,2.38
2022-10-23T11:10:21.095Z,1.60
2022-10-23T11:12:52.211Z,1.77
2022-10-23T11:15:41.477Z,1.75
2022-10-23T11:18:23.332Z,1.85
2022-10-23T11:21:01.418Z,1.80
2022-10-23T11:27:04.457Z,2.47
2022-10-23T11:29:59.011Z,2.35
2022-10-23T11:32:50.955Z,2.90
2022-10-23T11:35:50.502Z,2.13
2022-10-23T11:38:31.302Z,2.15
2022-10-23T11:41:34.911Z,2.10
2022-10-23T11:44:06.805Z,2.03
2022-10-23T11:46:40.261Z,2.25
2022-10-23T11:49:23.085Z,2.60
2022-10-23T11:52:02.646Z,2.10
2022-10-23T11:54:34.091Z,2.20
2022-10-23T11:57:12.623Z,2.35
2022-10-23T11:59:55.132Z,2.38
2022-10-23T12:02:37.864Z,2.00
2022-10-23T12:05:28.093Z,2.15
2022-10-23T12:08:00.261Z,2.13
2022-10-23T12:10:49.272Z,1.83
2022-10-23T12:13:33.430Z,2.65
2022-10-23T12:16:06.070Z,2.55
2022-10-23T12:18:48.847Z,2.60
2022-10-23T12:21:23.315Z,2.47
2022-10-23T12:24:04.855Z,2.55
2022-10-23T12:27:22.966Z,2.97
2022-10-23T12:30:00.481Z,3.10
2022-10-23T12:33:02.652Z,3.15
2022-10-23T12:35:35.468Z,3.42
2022-10-23T12:38:35.329Z,3.42
2022-10-23T12:41:20.939Z,2.80
2022-10-23T12:44:04.364Z,3.22
2022-10-23T12:46:38.318Z,2.85
2022-10-23T12:49:21.462Z,3.10
2022-10-23T12:52:02.305Z,3.55
2022-10-23T12:54:35.143Z,3.33
2022-10-23T12:57:23.170Z,2.95
2022-10-23T13:00:00.569Z,3.42
2022-10-23T13:02:32.855Z,3.33
2022-10-23T13:05:09.504Z,3.65
2022-10-23T13:07:48.954Z,3.33
2022-10-23T13:10:26.915Z,2.75
2022-10-23T13:13:06.747Z,2.90
2022-10-23T13:15:41.286Z,2.78
2022-10-23T13:18:15.289Z,2.58
2022-10-23T13:20:58.953Z,2.70
2022-10-23T13:26:46.271Z,2.50
2022-10-23T13:29:27.135Z,3.00
2022-10-23T13:31:57.763Z,3.17
2022-10-23T13:34:32.211Z,3.28
2022-10-23T13:37:23.405Z,3.40
2022-10-23T13:40:38.157Z,2.97
2022-10-23T13:43:17.517Z,3.10
2022-10-23T13:45:47.991Z,3.08
2022-10-23T13:48:19.176Z,2.92
2022-10-23T13:50:49.167Z,3.03
2022-10-23T13:53:19.713Z,2.85
2022-10-23T13:55:56.222Z,2.70
2022-10-23T13:58:29.073Z,2.83
2022-10-23T14:01:00.762Z,3.10
2022-10-23T14:03:33.598Z,3.67
2022-10-23T14:06:03.664Z,3.65
2022-10-23T14:08:34.027Z,3.28
2022-10-23T14:11:04.057Z,3.90
2022-10-23T14:13:34.484Z,3.20
2022-10-23T14:16:04.944Z,2.80
2022-10-23T14:18:35.756Z,3.97
2022-10-23T14:21:08.970Z,2.60
2022-10-23T14:23:39.602Z,3.45
2022-10-23T14:26:12.903Z,3.17
2022-10-23T14:28:46.605Z,3.10
2022-10-23T14:31:19.241Z,3.40
2022-10-23T14:33:55.116Z,3.47
2022-10-23T14:36:28.319Z,3.53
2022-10-23T14:39:05.153Z,2.90
2022-10-23T14:41:35.097Z,2.40
2022-10-23T14:44:05.460Z,3.00
2022-10-23T14:46:36.776Z,3.03
2022-10-23T14:49:07.509Z,2.80
2022-10-23T14:51:37.558Z,2.75
2022-10-23T14:54:09.165Z,2.60
2022-10-23T14:56:43.486Z,3.42
2022-10-23T14:59:16.343Z,3.28
2022-10-23T15:01:48.450Z,3.40
2022-10-23T15:04:19.207Z,3.17
2022-10-23T15:06:49.237Z,3.30
2022-10-23T15:09:25.414Z,3.30
2022-10-23T15:11:55.431Z,3.15
2022-10-23T15:14:25.798Z,3.20
2022-10-23T15:16:55.618Z,3.50
2022-10-23T15:19:26.323Z,3.20
2022-10-23T15:21:56.356Z,3.20
2022-10-23T15:24:27.767Z,3.22
2022-10-23T15:27:01.348Z,3.63
2022-10-23T15:29:31.711Z,3.58
2022-10-23T15:32:03.033Z,3.63
2022-10-23T15:34:37.406Z,3.63
2022-10-23T15:37:07.598Z,3.45
2022-10-23T15:39:38.062Z,3.40
2022-10-23T15:42:08.434Z,4.07
2022-10-23T15:44:40.906Z,3.50
2022-10-23T15:47:10.902Z,3.38
2022-10-23T15:49:41.399Z,3.55
2022-10-23T15:52:12.328Z,3.65
2022-10-23T15:54:42.919Z,3.28
2022-10-23T15:57:12.927Z,3.65
2022-10-23T15:59:43.371Z,3.60
2022-10-23T16:02:14.065Z,3.65
2022-10-23T16:04:44.691Z,3.22
2022-10-23T16:07:14.643Z,2.97
2022-10-23T16:09:44.573Z,3.53
2022-10-23T16:12:14.924Z,3.80
2022-10-23T16:14:44.914Z,3.50
2022-10-23T16:20:05.739Z,3.60
2022-10-23T16:22:36.088Z,3.17
2022-10-23T16:25:09.851Z,3.38
2022-10-23T16:27:41.756Z,3.05
2022-10-23T16:30:17.590Z,3.35
2022-10-23T16:32:49.075Z,2.83
2022-10-23T16:35:19.122Z,3.08
2022-10-23T16:38:01.531Z,3.60
2022-10-23T16:40:31.737Z,2.30
2022-10-23T16:43:20.195Z,2.75
2022-10-23T16:46:23.481Z,3.00
2022-10-23T16:48:55.606Z,3.08
2022-10-23T16:51:29.061Z,2.70
2022-10-23T16:53:59.858Z,2.35
2022-10-23T16:56:31.336Z,2.40
2022-10-23T16:59:01.711Z,2.15
2022-10-23T17:01:33.154Z,1.67
2022-10-23T17:04:03.761Z,1.70
2022-10-23T17:06:34.831Z,1.38
2022-10-23T17:09:09.359Z,1.38
2022-10-23T17:11:41.531Z,2.03
2022-10-23T17:14:18.673Z,1.60
2022-10-23T17:16:53.511Z,1.40
2022-10-23T17:22:17.780Z,1.63
2022-10-23T17:24:50.299Z,1.80
2022-10-23T17:27:23.731Z,1.35
2022-10-23T17:29:53.682Z,1.20
2022-10-23T17:32:23.509Z,1.17
2022-10-23T17:34:54.006Z,1.52
2022-10-23T17:37:23.991Z,1.55
2022-10-23T17:39:54.425Z,1.30
2022-10-23T17:42:24.469Z,1.30
2022-10-23T17:44:54.809Z,1.50
2022-10-23T17:47:24.622Z,1.35
2022-10-23T17:49:54.983Z,1.40
2022-10-23T17:52:25.001Z,1.30
2022-10-23T17:54:55.386Z,1.17
2022-10-23T17:57:25.382Z,1.63
2022-10-23T17:59:55.771Z,1.00
2022-10-23T18:02:26.109Z,1.08
2022-10-23T18:04:56.556Z,1.45
2022-10-23T18:07:29.663Z,1.23
2022-10-23T18:10:00.005Z,1.05
2022-10-23T18:12:30.635Z,1.33
2022-10-23T18:15:02.040Z,0.98
2022-10-23T18:17:31.980Z,1.42
2022-10-23T18:20:02.489Z,1.15
2022-10-23T18:22:36.266Z,1.05
2022-10-23T18:25:07.065Z,1.30
2022-10-23T18:27:37.176Z,0.90
2022-10-23T18:30:08.844Z,1.15
2022-10-23T18:32:38.951Z,1.08
2022-10-23T18:35:09.823Z,1.00
2022-10-23T18:37:41.538Z,1.08
2022-10-23T18:40:14.357Z,0.98
2022-10-23T18:42:44.644Z,0.90
2022-10-23T18:45:15.437Z,0.80
2022-10-23T18:47:45.999Z,0.93
2022-10-23T18:50:17.235Z,0.90
2022-10-23T18:52:47.361Z,0.90
2022-10-23T18:55:17.691Z,1.05
2022-10-23T18:57:47.554Z,1.10
2022-10-23T19:00:18.080Z,0.95
2022-10-23T19:02:52.186Z,1.00
2022-10-23T19:05:23.129Z,0.75
2022-10-23T19:07:53.375Z,1.00
2022-10-23T19:10:24.437Z,0.50
2022-10-23T19:12:54.517Z,0.68
2022-10-23T19:15:24.973Z,0.90
2022-10-23T19:17:55.006Z,0.63
2022-10-23T19:20:25.487Z,0.90
2022-10-23T19:22:57.821Z,0.70
2022-10-23T19:25:34.894Z,0.90
2022-10-23T19:28:06.154Z,0.68
2022-10-23T19:30:36.714Z,0.88
2022-10-23T19:33:06.743Z,0.82
2022-10-23T19:35:36.538Z,0.35
2022-10-23T19:38:07.049Z,0.73
2022-10-23T19:40:37.113Z,0.90
2022-10-23T19:43:07.582Z,0.55
2022-10-23T19:45:38.633Z,0.82
2022-10-23T19:48:09.965Z,0.85
2022-10-23T19:50:41.335Z,0.60
2022-10-23T19:53:11.829Z,0.60
2022-10-23T19:55:41.599Z,0.57
2022-10-23T19:58:12.086Z,0.70
2022-10-23T20:00:42.076Z,0.60
2022-10-23T20:03:12.501Z,0.82
2022-10-23T20:05:46.932Z,0.70
2022-10-23T20:08:17.399Z,0.75
2022-10-23T20:10:49.028Z,0.60
2022-10-23T20:13:20.485Z,0.93
2022-10-23T20:15:50.675Z,0.50
2022-10-23T20:18:20.487Z,0.52
2022-10-23T20:20:51.570Z,0.47
2022-10-23T20:23:22.312Z,0.55
2022-10-23T20:25:52.631Z,0.47
2022-10-23T20:33:22.385Z,0.55
2022-10-23T20:38:24.581Z,0.60
2022-10-23T20:40:58.803Z,0.47
2022-10-23T20:43:29.770Z,0.40
2022-10-23T20:46:03.984Z,0.95
2022-10-23T20:48:39.260Z,0.70
2022-10-23T20:51:18.245Z,0.57
2022-10-23T20:53:49.370Z,0.55
2022-10-23T20:56:32.345Z,0.60
2022-10-23T20:59:12.100Z,0.50
2022-10-23T21:01:44.872Z,0.60
2022-10-23T21:04:16.242Z,0.60
2022-10-23T21:07:08.317Z,0.60
2022-10-23T21:09:36.915Z,0.40
2022-10-23T21:14:38.178Z,0.50
2022-10-23T21:17:09.940Z,0.50
2022-10-23T21:19:41.120Z,0.40
2022-10-23T21:22:11.191Z,0.80
2022-10-23T21:24:41.995Z,0.30
2022-10-23T21:27:12.204Z,0.70
2022-10-23T21:29:42.757Z,0.40
2022-10-23T21:32:12.710Z,0.70
2022-10-23T21:34:42.598Z,0.22
2022-10-23T21:37:14.231Z,0.60
2022-10-23T21:39:48.117Z,0.80
2022-10-23T21:42:19.516Z,0.60
2022-10-23T21:44:49.565Z,0.80
2022-10-23T21:47:19.889Z,0.50
2022-10-23T21:49:50.962Z,0.47
2022-10-23T21:52:21.788Z,0.50
2022-10-23T21:54:55.268Z,0.70
2022-10-23T21:57:33.231Z,1.08
2022-10-23T22:00:03.441Z,0.32
2022-10-23T22:02:51.013Z,0.47
2022-10-23T22:05:21.343Z,0.65
2022-10-23T22:07:52.525Z,0.80
2022-10-23T22:10:23.655Z,0.75
2022-10-23T22:12:54.110Z,0.77
2022-10-23T22:15:24.228Z,0.82
2022-10-23T22:17:55.819Z,0.90
2022-10-23T22:20:28.054Z,0.50
2022-10-23T22:23:01.850Z,0.70
2022-10-23T22:25:32.333Z,0.50
2022-10-23T22:28:02.704Z,0.65
2022-10-23T22:30:35.091Z,0.80
2022-10-23T22:33:05.956Z,0.68
2022-10-23T22:35:36.040Z,0.70
2022-10-23T22:38:06.678Z,0.63
2022-10-23T22:40:44.341Z,0.65
2022-10-23T22:43:20.213Z,0.60
2022-10-23T22:45:55.131Z,0.55
2022-10-23T22:48:27.659Z,0.80
2022-10-23T22:50:59.473Z,0.73
2022-10-23T22:53:30.652Z,0.60
2022-10-23T22:56:00.832Z,0.45
2022-10-23T22:58:31.445Z,0.68
2022-10-23T23:01:12.998Z,0.90
2022-10-23T23:03:47.216Z,0.60
2022-10-23T23:06:17.878Z,0.68
2022-10-23T23:08:49.501Z,0.70
2022-10-23T23:11:21.835Z,0.60
2022-10-23T23:13:53.117Z,0.50
2022-10-23T23:16:26.151Z,0.90
2022-10-23T23:19:01.271Z,0.75
2022-10-23T23:21:34.454Z,0.60
2022-10-23T23:24:06.026Z,0.77
2022-10-23T23:26:40.431Z,0.95
2022-10-23T23:29:10.459Z,0.98
2022-10-23T23:31:41.191Z,0.60
2022-10-23T23:36:40.563Z,0.60
2022-10-23T23:39:12.166Z,0.55
2022-10-23T23:41:45.305Z,0.50
2022-10-23T23:44:16.952Z,0.40
2022-10-23T23:46:50.204Z,0.40
2022-10-23T23:49:20.906Z,0.63
2022-10-23T23:54:20.298Z,0.50
2022-10-23T23:56:50.777Z,0.60
2022-10-23T23:59:20.635Z,0.80
